createdAt,value
2023-03-17T00:00:54.635Z,65.01
2023-03-17T00:03:27.729Z,64.77
2023-03-17T00:05:59.851Z,65.05
2023-03-17T00:08:34.743Z,65.38
2023-03-17T00:11:10.164Z,64.77
2023-03-17T00:13:40.512Z,65.34
2023-03-17T00:16:19.325Z,65.63
2023-03-17T00:18:51.184Z,64.44
2023-03-17T00:21:32.855Z,65.21
2023-03-17T00:24:03.248Z,64.98
2023-03-17T00:26:33.662Z,65.07
2023-03-17T00:29:05.691Z,65.08
2023-03-17T00:31:36.692Z,64.83
2023-03-17T00:34:08.218Z,65.14
2023-03-17T00:36:38.751Z,65.13
2023-03-17T00:39:17.633Z,65.88
2023-03-17T00:44:17.642Z,65.02
2023-03-17T00:46:47.834Z,65.65
2023-03-17T00:49:21.433Z,65.74
2023-03-17T00:51:52.282Z,64.92
2023-03-17T00:54:22.849Z,65.54
2023-03-17T00:56:53.091Z,65.47
2023-03-17T00:59:27.936Z,65.67
2023-03-17T01:01:58.685Z,65.78
2023-03-17T01:04:29.010Z,65.68
2023-03-17T01:06:59.483Z,65.53
2023-03-17T01:09:30.939Z,65.88
2023-03-17T01:12:01.692Z,65.61
2023-03-17T01:14:31.892Z,65.69
2023-03-17T01:17:02.344Z,65.52
2023-03-17T01:19:32.787Z,64.81
2023-03-17T01:22:03.337Z,65.49
2023-03-17T01:24:33.473Z,65.48
2023-03-17T01:27:05.115Z,65.47
2023-03-17T01:29:35.289Z,65.51
2023-03-17T01:35:46.183Z,64.96
2023-03-17T01:38:16.410Z,65.43
2023-03-17T01:40:51.783Z,65.43
2023-03-17T01:43:30.900Z,64.92
2023-03-17T01:46:22.720Z,65.86
2023-03-17T01:49:17.517Z,65.44
2023-03-17T01:51:57.686Z,65.67
2023-03-17T01:54:45.284Z,66.00
2023-03-17T01:57:23.427Z,65.80
2023-03-17T02:00:10.174Z,65.72
2023-03-17T02:02:46.476Z,65.34
2023-03-17T02:05:27.770Z,65.48
2023-03-17T02:07:57.926Z,65.93
2023-03-17T02:10:29.943Z,65.86
2023-03-17T02:13:05.675Z,65.96
2023-03-17T02:15:41.601Z,65.78
2023-03-17T02:18:12.875Z,65.74
2023-03-17T02:20:46.744Z,65.86
2023-03-17T02:23:22.564Z,65.65
2023-03-17T02:25:54.226Z,65.78
2023-03-17T02:28:30.123Z,66.09
2023-03-17T02:31:00.359Z,65.73
2023-03-17T02:33:30.799Z,66.12
2023-03-17T02:36:01.077Z,65.84
2023-03-17T02:38:31.963Z,66.25
2023-03-17T02:41:02.070Z,66.05
2023-03-17T02:43:32.506Z,66.03
2023-03-17T02:46:02.698Z,66.55
2023-03-17T02:48:35.029Z,66.47
2023-03-17T02:51:05.587Z,66.59
2023-03-17T02:53:35.783Z,66.59
2023-03-17T02:56:06.358Z,66.71
2023-03-17T02:58:36.634Z,66.78
2023-03-17T03:01:06.891Z,67.30
2023-03-17T03:03:37.364Z,67.60
2023-03-17T03:06:07.778Z,66.69
2023-03-17T03:08:37.969Z,66.86
2023-03-17T03:11:08.170Z,66.72
2023-03-17T03:13:39.140Z,66.78
2023-03-17T03:16:09.436Z,66.62
2023-03-17T03:18:39.531Z,66.90
2023-03-17T03:21:09.929Z,66.69
2023-03-17T03:23:40.035Z,67.38
2023-03-17T03:26:10.195Z,66.74
2023-03-17T03:28:40.350Z,67.30
2023-03-17T03:31:11.429Z,67.11
2023-03-17T03:33:42.432Z,67.04
2023-03-17T03:36:13.644Z,67.35
2023-03-17T03:38:43.781Z,67.55
2023-03-17T03:41:14.464Z,67.74
2023-03-17T03:43:44.650Z,67.51
2023-03-17T03:46:15.869Z,67.19
2023-03-17T03:48:46.183Z,67.90
2023-03-17T03:51:16.359Z,67.78
2023-03-17T03:53:48.443Z,67.51
2023-03-17T03:56:18.507Z,67.87
2023-03-17T03:58:48.911Z,68.02
2023-03-17T04:01:19.773Z,68.13
2023-03-17T04:03:49.991Z,68.14
2023-03-17T04:06:20.227Z,67.66
2023-03-17T04:08:50.445Z,67.96
2023-03-17T04:11:20.644Z,68.08
2023-03-17T04:13:50.796Z,68.17
2023-03-17T04:16:20.981Z,68.07
2023-03-17T04:18:51.414Z,68.23
2023-03-17T04:21:21.934Z,67.74
2023-03-17T04:23:52.106Z,67.76
2023-03-17T04:26:23.320Z,68.19
2023-03-17T04:28:53.463Z,68.30
2023-03-17T04:31:23.984Z,68.40
2023-03-17T04:33:54.115Z,68.29
2023-03-17T04:36:24.967Z,68.37
2023-03-17T04:38:55.206Z,68.38
2023-03-17T04:41:25.362Z,67.99
2023-03-17T04:43:55.512Z,67.97
2023-03-17T04:46:25.809Z,68.62
2023-03-17T04:48:57.483Z,68.88
2023-03-17T04:51:28.101Z,68.64
2023-03-17T04:53:58.358Z,68.82
2023-03-17T04:56:31.212Z,68.47
2023-03-17T04:59:02.483Z,68.65
2023-03-17T05:01:32.621Z,68.37
2023-03-17T05:04:02.718Z,68.35
2023-03-17T05:06:32.963Z,68.30
2023-03-17T05:09:04.206Z,68.99
2023-03-17T05:11:34.428Z,68.96
2023-03-17T05:14:04.575Z,68.80
2023-03-17T05:16:34.795Z,68.49
2023-03-17T05:19:06.491Z,68.92
2023-03-17T05:21:36.719Z,68.64
2023-03-17T05:24:07.037Z,68.45
2023-03-17T05:26:37.511Z,68.51
2023-03-17T05:29:09.133Z,68.78
2023-03-17T05:31:39.293Z,68.73
2023-03-17T05:34:09.467Z,68.81
2023-03-17T05:36:39.782Z,68.56
2023-03-17T05:39:14.008Z,68.17
2023-03-17T05:41:44.677Z,68.98
2023-03-17T05:44:14.749Z,69.05
2023-03-17T05:46:44.951Z,68.43
2023-03-17T05:49:15.459Z,68.37
2023-03-17T05:51:45.560Z,68.74
2023-03-17T05:54:15.839Z,68.92
2023-03-17T05:56:46.898Z,68.60
2023-03-17T05:59:18.630Z,68.56
2023-03-17T06:01:48.795Z,68.86
2023-03-17T06:04:18.876Z,68.39
2023-03-17T06:06:49.041Z,68.66
2023-03-17T06:09:19.450Z,68.62
2023-03-17T06:11:49.640Z,68.16
2023-03-17T06:14:19.781Z,68.01
2023-03-17T06:16:51.016Z,68.16
2023-03-17T06:19:21.185Z,68.11
2023-03-17T06:21:51.237Z,68.41
2023-03-17T06:24:21.851Z,68.40
2023-03-17T06:26:53.056Z,68.03
2023-03-17T06:29:24.873Z,68.13
2023-03-17T06:31:56.088Z,67.78
2023-03-17T06:34:27.686Z,67.96
2023-03-17T06:36:58.743Z,68.04
2023-03-17T06:39:29.115Z,67.99
2023-03-17T06:41:59.219Z,68.00
2023-03-17T06:44:29.349Z,67.43
2023-03-17T06:46:59.491Z,67.16
2023-03-17T06:49:29.650Z,67.67
2023-03-17T06:51:59.806Z,67.42
2023-03-17T06:54:29.945Z,67.59
2023-03-17T06:57:00.152Z,67.44
2023-03-17T06:59:30.887Z,67.72
2023-03-17T07:02:01.172Z,67.33
2023-03-17T07:04:32.094Z,67.51
2023-03-17T07:07:03.336Z,67.38
2023-03-17T07:09:37.413Z,66.76
2023-03-17T07:12:07.908Z,67.35
2023-03-17T07:14:41.915Z,66.91
2023-03-17T07:17:13.746Z,66.90
2023-03-17T07:19:44.014Z,67.04
2023-03-17T07:22:14.168Z,67.08
2023-03-17T07:24:45.056Z,66.59
2023-03-17T07:27:16.594Z,67.07
2023-03-17T07:29:46.924Z,66.59
2023-03-17T07:32:17.285Z,66.88
2023-03-17T07:34:47.394Z,66.59
2023-03-17T07:37:17.797Z,66.42
2023-03-17T07:39:48.447Z,66.58
2023-03-17T07:42:18.839Z,66.64
2023-03-17T07:44:49.026Z,66.84
2023-03-17T07:47:19.947Z,66.52
2023-03-17T07:49:50.205Z,66.39
2023-03-17T07:52:20.582Z,66.41
2023-03-17T07:54:52.401Z,66.85
2023-03-17T07:57:22.905Z,66.45
2023-03-17T07:59:53.209Z,66.27
2023-03-17T08:02:23.422Z,66.38
2023-03-17T08:04:54.217Z,66.46
2023-03-17T08:07:24.786Z,66.37
2023-03-17T08:09:55.181Z,66.63
2023-03-17T08:12:25.746Z,66.30
2023-03-17T08:14:56.063Z,66.69
2023-03-17T08:17:27.574Z,66.56
2023-03-17T08:19:57.772Z,66.42
2023-03-17T08:22:27.938Z,66.74
2023-03-17T08:24:58.867Z,66.70
2023-03-17T08:27:29.080Z,66.56
2023-03-17T08:29:59.262Z,66.29
2023-03-17T08:32:29.463Z,66.37
2023-03-17T08:35:00.768Z,66.05
2023-03-17T08:37:30.951Z,66.24
2023-03-17T08:40:01.520Z,66.14
2023-03-17T08:42:31.973Z,66.31
2023-03-17T08:45:02.143Z,65.89
2023-03-17T08:47:33.302Z,66.31
2023-03-17T08:50:07.032Z,65.96
2023-03-17T08:52:38.094Z,65.89
2023-03-17T08:55:09.202Z,65.87
2023-03-17T08:57:39.725Z,65.64
2023-03-17T09:00:11.645Z,65.08
2023-03-17T09:02:43.824Z,65.35
2023-03-17T09:05:16.188Z,65.48
2023-03-17T09:07:47.380Z,65.26
2023-03-17T09:10:22.721Z,65.01
2023-03-17T09:12:53.531Z,65.07
2023-03-17T09:15:23.752Z,65.05
2023-03-17T09:17:54.096Z,65.01
2023-03-17T09:20:24.587Z,64.87
2023-03-17T09:22:54.955Z,65.14
2023-03-17T09:25:26.338Z,65.08
2023-03-17T09:27:56.657Z,64.66
2023-03-17T09:30:27.179Z,64.61
2023-03-17T09:32:57.348Z,64.42
2023-03-17T09:35:28.912Z,64.12
2023-03-17T09:38:00.823Z,63.87
2023-03-17T09:40:36.446Z,63.54
2023-03-17T09:43:29.888Z,61.93
2023-03-17T09:46:22.798Z,62.52
2023-03-17T09:49:07.941Z,61.75
2023-03-17T09:51:38.864Z,62.62
2023-03-17T09:54:22.874Z,61.92
2023-03-17T09:57:16.790Z,61.41
2023-03-17T09:59:55.195Z,62.07
2023-03-17T10:02:34.458Z,61.37
2023-03-17T10:05:14.458Z,61.43
2023-03-17T10:08:30.508Z,59.37
2023-03-17T10:11:19.364Z,61.35
2023-03-17T10:14:04.182Z,59.77
2023-03-17T10:16:46.960Z,60.15
2023-03-17T10:19:40.761Z,58.98
2023-03-17T10:22:22.024Z,60.04
2023-03-17T10:24:57.104Z,60.25
2023-03-17T10:27:28.770Z,60.80
2023-03-17T10:29:58.909Z,60.51
2023-03-17T10:32:32.057Z,60.04
2023-03-17T10:35:02.885Z,59.69
2023-03-17T10:37:36.736Z,59.73
2023-03-17T10:40:11.124Z,59.76
2023-03-17T10:42:53.277Z,58.37
2023-03-17T10:45:38.401Z,58.74
2023-03-17T10:48:14.936Z,59.65
2023-03-17T10:50:49.342Z,59.16
2023-03-17T10:53:28.457Z,59.47
2023-03-17T10:56:09.870Z,57.91
2023-03-17T10:58:51.577Z,58.02
2023-03-17T11:01:28.037Z,58.34
2023-03-17T11:04:02.638Z,59.14
2023-03-17T11:06:39.434Z,57.73
2023-03-17T11:09:11.167Z,58.96
2023-03-17T11:11:49.154Z,57.22
2023-03-17T11:14:20.050Z,57.97
2023-03-17T11:16:56.208Z,56.37
2023-03-17T11:19:48.811Z,54.80
2023-03-17T11:22:56.670Z,53.95
2023-03-17T11:25:28.620Z,56.66
2023-03-17T11:28:20.894Z,53.01
2023-03-17T11:30:50.959Z,55.98
2023-03-17T11:33:42.792Z,53.11
2023-03-17T11:36:18.792Z,56.29
2023-03-17T11:38:58.049Z,52.28
2023-03-17T11:41:46.146Z,52.40
2023-03-17T11:44:42.373Z,53.26
2023-03-17T11:47:38.504Z,52.39
2023-03-17T11:50:41.158Z,50.54
2023-03-17T11:53:59.238Z,50.60
2023-03-17T11:57:01.475Z,52.33
2023-03-17T11:59:46.018Z,51.88
2023-03-17T12:02:20.893Z,54.56
2023-03-17T12:05:02.560Z,52.29
2023-03-17T12:07:41.769Z,53.32
2023-03-17T12:10:38.033Z,53.31
2023-03-17T12:13:40.384Z,50.42
2023-03-17T12:16:26.607Z,52.92
2023-03-17T12:19:08.942Z,53.32
2023-03-17T12:21:46.743Z,52.75
2023-03-17T12:24:26.992Z,50.38
2023-03-17T12:27:06.133Z,51.16
2023-03-17T12:30:08.055Z,49.01
2023-03-17T12:32:46.083Z,50.15
2023-03-17T12:35:22.240Z,51.62
2023-03-17T12:37:53.746Z,52.11
2023-03-17T12:40:41.474Z,51.37
2023-03-17T12:43:24.596Z,49.28
2023-03-17T12:46:22.413Z,47.79
2023-03-17T12:49:11.050Z,52.83
2023-03-17T12:51:54.287Z,49.55
2023-03-17T12:54:34.633Z,46.14
2023-03-17T12:57:13.668Z,51.52
2023-03-17T12:59:46.864Z,47.59
2023-03-17T13:02:39.894Z,49.30
2023-03-17T13:05:15.628Z,43.51
2023-03-17T13:08:08.528Z,39.06
2023-03-17T13:10:51.241Z,42.23
2023-03-17T13:13:36.551Z,38.83
2023-03-17T13:16:27.556Z,37.13
2023-03-17T13:19:25.585Z,36.27
2023-03-17T13:22:05.320Z,37.59
2023-03-17T13:24:48.841Z,40.42
2023-03-17T13:27:48.503Z,36.97
2023-03-17T13:30:26.573Z,40.41
2023-03-17T13:33:23.848Z,37.59
2023-03-17T13:36:08.354Z,40.43
2023-03-17T13:39:18.845Z,39.65
2023-03-17T13:41:50.203Z,43.26
2023-03-17T13:44:38.632Z,39.19
2023-03-17T13:47:28.580Z,38.46
2023-03-17T13:50:07.847Z,40.09
2023-03-17T13:52:55.703Z,37.03
2023-03-17T13:55:36.800Z,37.53
2023-03-17T13:58:11.587Z,42.13
2023-03-17T14:00:47.077Z,39.97
2023-03-17T14:03:29.289Z,37.09
2023-03-17T14:06:04.864Z,40.54
2023-03-17T14:08:56.061Z,31.24
2023-03-17T14:11:36.394Z,35.14
2023-03-17T14:14:33.219Z,33.35
2023-03-17T14:17:19.455Z,39.44
2023-03-17T14:20:06.469Z,30.87
2023-03-17T14:22:45.200Z,32.88
2023-03-17T14:25:38.846Z,29.13
2023-03-17T14:28:15.572Z,32.16
2023-03-17T14:30:55.100Z,31.50
2023-03-17T14:33:33.835Z,32.96
2023-03-17T14:36:08.085Z,35.17
2023-03-17T14:38:45.934Z,35.00
2023-03-17T14:41:30.042Z,29.17
2023-03-17T14:44:01.875Z,35.48
2023-03-17T14:46:37.805Z,32.37
2023-03-17T14:49:21.298Z,29.43
2023-03-17T14:51:58.426Z,34.55
2023-03-17T14:54:33.219Z,31.73
2023-03-17T14:57:08.145Z,31.32
2023-03-17T14:59:41.536Z,32.89
2023-03-17T15:02:28.167Z,27.49
2023-03-17T15:05:27.561Z,27.68
2023-03-17T15:07:57.669Z,33.02
2023-03-17T15:10:31.504Z,32.39
2023-03-17T15:13:04.627Z,32.03
2023-03-17T15:15:38.995Z,32.11
2023-03-17T15:18:14.587Z,30.85
2023-03-17T15:20:45.965Z,33.15
2023-03-17T15:23:25.282Z,31.28
2023-03-17T15:25:57.018Z,33.68
2023-03-17T15:28:31.991Z,33.05
2023-03-17T15:31:13.421Z,31.96
2023-03-17T15:33:43.502Z,34.81
2023-03-17T15:36:31.327Z,34.31
2023-03-17T15:39:03.593Z,35.21
2023-03-17T15:41:33.706Z,35.37
2023-03-17T15:44:05.357Z,36.03
2023-03-17T15:46:35.842Z,36.14
2023-03-17T15:49:11.752Z,36.53
2023-03-17T15:51:41.927Z,36.98
2023-03-17T15:54:15.408Z,37.32
2023-03-17T15:56:45.498Z,37.64
2023-03-17T15:59:15.858Z,38.11
2023-03-17T16:01:46.994Z,38.27
2023-03-17T16:04:18.161Z,38.72
2023-03-17T16:06:49.275Z,38.91
2023-03-17T16:09:19.389Z,39.28
2023-03-17T16:11:52.277Z,39.32
2023-03-17T16:14:22.365Z,40.10
2023-03-17T16:16:52.867Z,40.61
2023-03-17T16:19:25.144Z,40.94
2023-03-17T16:21:55.916Z,40.57
2023-03-17T16:24:27.232Z,40.95
2023-03-17T16:26:58.388Z,41.27
2023-03-17T16:29:28.568Z,41.61
2023-03-17T16:31:58.629Z,41.64
2023-03-17T16:34:28.831Z,41.68
2023-03-17T16:36:59.013Z,42.20
2023-03-17T16:39:29.826Z,42.25
2023-03-17T16:42:01.364Z,42.28
2023-03-17T16:44:32.087Z,42.41
2023-03-17T16:47:02.272Z,42.64
2023-03-17T16:49:32.496Z,42.79
2023-03-17T16:52:02.656Z,43.24
2023-03-17T16:54:33.661Z,43.13
2023-03-17T16:57:06.542Z,43.50
2023-03-17T16:59:37.762Z,43.63
2023-03-17T17:02:18.452Z,44.32
2023-03-17T17:04:48.585Z,44.12
2023-03-17T17:07:18.641Z,43.77
2023-03-17T17:09:48.845Z,44.19
2023-03-17T17:12:18.966Z,44.19
2023-03-17T17:14:52.678Z,44.33
2023-03-17T17:17:23.117Z,44.50
2023-03-17T17:19:53.270Z,44.62
2023-03-17T17:22:23.357Z,45.03
2023-03-17T17:24:53.502Z,45.12
2023-03-17T17:27:23.640Z,45.30
2023-03-17T17:29:53.801Z,45.23
2023-03-17T17:32:26.009Z,45.12
2023-03-17T17:34:56.109Z,45.26
2023-03-17T17:37:26.316Z,45.46
2023-03-17T17:39:56.552Z,45.62
2023-03-17T17:42:26.711Z,45.59
2023-03-17T17:44:56.805Z,45.75
2023-03-17T17:47:26.967Z,45.78
2023-03-17T17:49:59.478Z,45.86
2023-03-17T17:52:29.580Z,46.08
2023-03-17T17:55:01.161Z,45.94
2023-03-17T17:57:31.267Z,46.23
2023-03-17T18:00:01.442Z,46.10
2023-03-17T18:02:31.535Z,46.14
2023-03-17T18:05:01.738Z,46.63
2023-03-17T18:07:32.790Z,46.47
2023-03-17T18:10:03.811Z,46.59
2023-03-17T18:12:34.075Z,46.68
2023-03-17T18:15:05.809Z,46.77
2023-03-17T18:17:36.693Z,46.89
2023-03-17T18:20:10.384Z,46.93
2023-03-17T18:22:41.259Z,47.20
2023-03-17T18:25:14.051Z,47.40
2023-03-17T18:27:45.045Z,47.26
2023-03-17T18:30:25.441Z,47.74
2023-03-17T18:33:00.741Z,47.35
2023-03-17T18:35:31.735Z,47.67
2023-03-17T18:38:02.270Z,47.63
2023-03-17T18:40:33.434Z,47.64
2023-03-17T18:43:03.829Z,47.56
2023-03-17T18:45:34.475Z,47.76
2023-03-17T18:48:04.773Z,47.68
2023-03-17T18:50:34.985Z,48.00
2023-03-17T18:53:05.137Z,47.96
2023-03-17T18:55:35.307Z,47.97
2023-03-17T18:58:06.529Z,48.00
2023-03-17T19:00:37.622Z,48.28
2023-03-17T19:03:07.835Z,48.20
2023-03-17T19:05:38.629Z,48.32
2023-03-17T19:08:08.676Z,48.31
2023-03-17T19:10:38.843Z,48.25
2023-03-17T19:13:10.258Z,48.39
2023-03-17T19:15:42.767Z,48.35
2023-03-17T19:18:12.981Z,48.63
2023-03-17T19:20:43.533Z,48.58
2023-03-17T19:23:13.794Z,48.69
2023-03-17T19:25:46.868Z,48.47
2023-03-17T19:28:18.195Z,48.76
2023-03-17T19:30:51.817Z,48.70
2023-03-17T19:33:22.125Z,48.93
2023-03-17T19:35:58.794Z,49.02
2023-03-17T19:38:29.179Z,48.87
2023-03-17T19:41:00.497Z,49.07
2023-03-17T19:43:40.377Z,49.10
2023-03-17T19:46:12.669Z,49.17
2023-03-17T19:48:42.853Z,49.32
2023-03-17T19:51:15.508Z,49.21
2023-03-17T19:53:46.000Z,49.30
2023-03-17T19:56:16.667Z,49.27
2023-03-17T19:58:47.512Z,49.40
2023-03-17T20:01:18.252Z,49.44
2023-03-17T20:03:48.735Z,49.50
2023-03-17T20:06:18.932Z,49.85
2023-03-17T20:08:49.071Z,49.66
2023-03-17T20:11:19.622Z,49.47
2023-03-17T20:13:50.923Z,49.42
2023-03-17T20:16:21.162Z,49.75
2023-03-17T20:18:51.522Z,49.42
2023-03-17T20:21:21.725Z,49.44
2023-03-17T20:23:53.371Z,49.60
2023-03-17T20:26:23.550Z,49.69
2023-03-17T20:28:55.820Z,49.57
2023-03-17T20:31:25.941Z,49.53
2023-03-17T20:33:57.052Z,49.85
2023-03-17T20:36:27.586Z,49.65
2023-03-17T20:38:58.707Z,49.75
2023-03-17T20:41:29.191Z,49.65
2023-03-17T20:43:59.223Z,49.62
2023-03-17T20:46:29.413Z,49.66
2023-03-17T20:48:59.560Z,50.04
2023-03-17T20:51:29.685Z,49.73
2023-03-17T20:54:00.920Z,49.66
2023-03-17T20:56:35.862Z,49.68
2023-03-17T20:59:09.673Z,49.87
2023-03-17T21:01:40.752Z,49.70
2023-03-17T21:04:12.583Z,49.69
2023-03-17T21:06:43.029Z,49.82
2023-03-17T21:09:13.458Z,49.48
2023-03-17T21:11:43.601Z,49.76
2023-03-17T21:14:16.630Z,49.67
2023-03-17T21:16:47.426Z,49.78
2023-03-17T21:19:17.660Z,49.81
2023-03-17T21:21:47.782Z,49.58
2023-03-17T21:24:31.908Z,50.18
2023-03-17T21:27:05.405Z,49.89
2023-03-17T21:29:36.286Z,49.77
2023-03-17T21:32:09.740Z,49.93
2023-03-17T21:34:39.863Z,49.73
2023-03-17T21:37:13.413Z,49.85
2023-03-17T21:39:44.748Z,49.80
2023-03-17T21:42:17.394Z,49.99
2023-03-17T21:44:48.479Z,49.91
2023-03-17T21:47:19.937Z,49.86
2023-03-17T21:49:50.228Z,49.96
2023-03-17T21:52:21.798Z,49.84
2023-03-17T21:54:52.025Z,49.85
2023-03-17T21:57:23.053Z,50.28
2023-03-17T21:59:53.502Z,49.83
2023-03-17T22:02:28.357Z,49.95
2023-03-17T22:04:58.635Z,49.52
2023-03-17T22:07:29.467Z,49.83
2023-03-17T22:10:01.117Z,50.11
2023-03-17T22:12:35.299Z,50.12
2023-03-17T22:15:06.524Z,49.98
2023-03-17T22:17:36.774Z,49.93
2023-03-17T22:20:09.082Z,49.99
2023-03-17T22:22:39.268Z,49.75
2023-03-17T22:25:09.769Z,50.12
2023-03-17T22:27:40.238Z,50.12
2023-03-17T22:30:12.024Z,50.14
2023-03-17T22:32:42.774Z,50.08
2023-03-17T22:35:13.794Z,50.00
2023-03-17T22:37:43.867Z,50.07
2023-03-17T22:40:14.957Z,50.10
2023-03-17T22:42:45.164Z,50.24
2023-03-17T22:45:16.209Z,50.31
2023-03-17T22:47:46.302Z,50.22
2023-03-17T22:50:17.001Z,50.14
2023-03-17T22:52:47.414Z,49.91
2023-03-17T22:55:17.771Z,49.84
2023-03-17T22:57:48.074Z,49.99
2023-03-17T23:00:18.610Z,50.10
2023-03-17T23:02:48.869Z,49.89
2023-03-17T23:05:19.555Z,50.02
2023-03-17T23:07:51.756Z,49.92
2023-03-17T23:10:24.582Z,49.80
2023-03-17T23:12:56.477Z,49.96
2023-03-17T23:15:26.868Z,49.96
2023-03-17T23:17:57.428Z,49.99
2023-03-17T23:20:28.362Z,49.74
2023-03-17T23:22:58.670Z,49.97
2023-03-17T23:25:28.736Z,49.79
2023-03-17T23:27:58.995Z,49.78
2023-03-17T23:30:30.043Z,49.89
2023-03-17T23:33:01.437Z,49.69
2023-03-17T23:35:31.962Z,49.48
2023-03-17T23:38:04.196Z,49.62
2023-03-17T23:40:34.774Z,49.69
2023-03-17T23:43:05.668Z,49.80
2023-03-17T23:45:35.831Z,49.46
2023-03-17T23:48:05.989Z,49.36
2023-03-17T23:50:36.222Z,49.78
2023-03-17T23:53:06.306Z,49.48
2023-03-17T23:55:36.532Z,49.57
2023-03-17T23:58:06.792Z,49.54
